sensor_id;sensor_type;location;lat;lon;timestamp;temperature;humidity
55083;DHT22;40978;52.850;6.506;2022-09-03T00:02:01;16.60;65.60
55083;DHT22;40978;52.850;6.506;2022-09-03T00:04:37;16.60;65.60
55083;DHT22;40978;52.850;6.506;2022-09-03T00:07:34;16.60;65.90
55083;DHT22;40978;52.850;6.506;2022-09-03T00:10:09;16.50;66.00
55083;DHT22;40978;52.850;6.506;2022-09-03T00:12:41;16.40;66.10
55083;DHT22;40978;52.850;6.506;2022-09-03T00:15:19;16.40;66.40
55083;DHT22;40978;52.850;6.506;2022-09-03T00:17:49;16.30;66.40
55083;DHT22;40978;52.850;6.506;2022-09-03T00:20:21;16.30;66.70
55083;DHT22;40978;52.850;6.506;2022-09-03T00:22:53;16.20;66.80
55083;DHT22;40978;52.850;6.506;2022-09-03T00:25:32;16.20;67.60
55083;DHT22;40978;52.850;6.506;2022-09-03T00:28:01;16.20;66.90
55083;DHT22;40978;52.850;6.506;2022-09-03T00:30:31;16.20;66.90
55083;DHT22;40978;52.850;6.506;2022-09-03T00:33:00;16.20;67.10
55083;DHT22;40978;52.850;6.506;2022-09-03T00:35:50;16.10;67.10
55083;DHT22;40978;52.850;6.506;2022-09-03T00:38:18;16.10;67.50
55083;DHT22;40978;52.850;6.506;2022-09-03T00:57:37;15.90;68.30
55083;DHT22;40978;52.850;6.506;2022-09-03T01:00:15;15.90;68.30
55083;DHT22;40978;52.850;6.506;2022-09-03T01:08:05;15.80;68.60
55083;DHT22;40978;52.850;6.506;2022-09-03T01:13:46;15.70;68.90
55083;DHT22;40978;52.850;6.506;2022-09-03T01:19:03;15.70;69.00
55083;DHT22;40978;52.850;6.506;2022-09-03T01:24:53;15.70;69.20
55083;DHT22;40978;52.850;6.506;2022-09-03T01:30:19;15.60;69.30
55083;DHT22;40978;52.850;6.506;2022-09-03T01:38:11;15.60;69.70
55083;DHT22;40978;52.850;6.506;2022-09-03T01:46:36;15.50;70.20
55083;DHT22;40978;52.850;6.506;2022-09-03T01:52:12;15.50;71.10
55083;DHT22;40978;52.850;6.506;2022-09-03T02:00:08;15.50;70.40
55083;DHT22;40978;52.850;6.506;2022-09-03T02:02:36;15.50;70.40
55083;DHT22;40978;52.850;6.506;2022-09-03T02:05:05;15.50;70.60
55083;DHT22;40978;52.850;6.506;2022-09-03T02:07:37;15.50;70.70
55083;DHT22;40978;52.850;6.506;2022-09-03T02:10:07;15.60;70.90
55083;DHT22;40978;52.850;6.506;2022-09-03T02:12:34;15.50;70.90
55083;DHT22;40978;52.850;6.506;2022-09-03T02:15:06;15.60;70.90
55083;DHT22;40978;52.850;6.506;2022-09-03T02:17:34;15.60;70.80
55083;DHT22;40978;52.850;6.506;2022-09-03T02:20:06;15.60;70.80
55083;DHT22;40978;52.850;6.506;2022-09-03T02:22:33;15.60;70.90
55083;DHT22;40978;52.850;6.506;2022-09-03T02:24:59;15.60;71.00
55083;DHT22;40978;52.850;6.506;2022-09-03T02:27:25;15.60;71.10
55083;DHT22;40978;52.850;6.506;2022-09-03T02:29:51;15.60;71.10
55083;DHT22;40978;52.850;6.506;2022-09-03T02:32:17;15.70;71.20
55083;DHT22;40978;52.850;6.506;2022-09-03T02:34:43;15.70;71.20
55083;DHT22;40978;52.850;6.506;2022-09-03T02:37:16;15.70;71.00
55083;DHT22;40978;52.850;6.506;2022-09-03T02:39:43;15.70;71.10
55083;DHT22;40978;52.850;6.506;2022-09-03T02:42:11;15.80;71.10
55083;DHT22;40978;52.850;6.506;2022-09-03T02:47:32;15.80;70.80
55083;DHT22;40978;52.850;6.506;2022-09-03T02:50:00;15.90;70.80
55083;DHT22;40978;52.850;6.506;2022-09-03T02:52:25;15.90;70.70
55083;DHT22;40978;52.850;6.506;2022-09-03T02:54:51;15.90;70.60
55083;DHT22;40978;52.850;6.506;2022-09-03T02:57:17;16.00;70.60
55083;DHT22;40978;52.850;6.506;2022-09-03T02:59:42;16.00;70.60
55083;DHT22;40978;52.850;6.506;2022-09-03T03:02:11;16.00;70.60
55083;DHT22;40978;52.850;6.506;2022-09-03T03:04:37;16.00;70.40
55083;DHT22;40978;52.850;6.506;2022-09-03T03:07:04;16.10;70.30
55083;DHT22;40978;52.850;6.506;2022-09-03T03:09:29;16.10;70.40
55083;DHT22;40978;52.850;6.506;2022-09-03T03:11:55;16.10;70.10
55083;DHT22;40978;52.850;6.506;2022-09-03T03:14:21;16.10;69.90
55083;DHT22;40978;52.850;6.506;2022-09-03T03:16:48;16.20;69.90
55083;DHT22;40978;52.850;6.506;2022-09-03T03:19:13;16.20;69.80
55083;DHT22;40978;52.850;6.506;2022-09-03T03:21:39;16.10;69.70
55083;DHT22;40978;52.850;6.506;2022-09-03T03:24:05;16.10;69.90
55083;DHT22;40978;52.850;6.506;2022-09-03T03:26:31;16.20;69.90
55083;DHT22;40978;52.850;6.506;2022-09-03T03:28:59;16.20;69.90
55083;DHT22;40978;52.850;6.506;2022-09-03T03:31:26;16.10;69.80
55083;DHT22;40978;52.850;6.506;2022-09-03T03:33:53;16.10;69.90
55083;DHT22;40978;52.850;6.506;2022-09-03T03:36:19;16.10;69.90
55083;DHT22;40978;52.850;6.506;2022-09-03T03:38:45;16.10;70.00
55083;DHT22;40978;52.850;6.506;2022-09-03T03:41:17;16.10;70.00
55083;DHT22;40978;52.850;6.506;2022-09-03T03:43:44;16.10;70.10
55083;DHT22;40978;52.850;6.506;2022-09-03T03:46:10;16.00;70.20
55083;DHT22;40978;52.850;6.506;2022-09-03T03:48:36;16.00;70.30
55083;DHT22;40978;52.850;6.506;2022-09-03T03:51:05;16.00;70.50
55083;DHT22;40978;52.850;6.506;2022-09-03T03:53:32;16.00;70.60
55083;DHT22;40978;52.850;6.506;2022-09-03T03:55:59;15.90;70.60
55083;DHT22;40978;52.850;6.506;2022-09-03T03:58:27;15.90;70.60
55083;DHT22;40978;52.850;6.506;2022-09-03T04:00:53;15.90;70.60
55083;DHT22;40978;52.850;6.506;2022-09-03T04:03:19;15.90;70.60
55083;DHT22;40978;52.850;6.506;2022-09-03T04:05:58;15.90;70.80
55083;DHT22;40978;52.850;6.506;2022-09-03T04:08:25;15.90;70.70
55083;DHT22;40978;52.850;6.506;2022-09-03T04:10:51;15.80;71.20
55083;DHT22;40978;52.850;6.506;2022-09-03T04:13:17;15.80;71.30
55083;DHT22;40978;52.850;6.506;2022-09-03T04:15:43;15.70;71.40
55083;DHT22;40978;52.850;6.506;2022-09-03T04:18:09;15.70;71.50
55083;DHT22;40978;52.850;6.506;2022-09-03T04:20:35;15.70;71.80
55083;DHT22;40978;52.850;6.506;2022-09-03T04:23:01;15.60;72.00
55083;DHT22;40978;52.850;6.506;2022-09-03T04:25:27;15.60;72.20
55083;DHT22;40978;52.850;6.506;2022-09-03T04:27:52;15.50;72.40
55083;DHT22;40978;52.850;6.506;2022-09-03T04:30:19;15.50;72.70
55083;DHT22;40978;52.850;6.506;2022-09-03T04:32:44;15.40;72.80
55083;DHT22;40978;52.850;6.506;2022-09-03T04:35:21;15.40;72.90
55083;DHT22;40978;52.850;6.506;2022-09-03T04:37:48;15.30;73.10
55083;DHT22;40978;52.850;6.506;2022-09-03T04:40:14;15.30;73.60
55083;DHT22;40978;52.850;6.506;2022-09-03T04:42:39;15.30;73.80
55083;DHT22;40978;52.850;6.506;2022-09-03T04:45:05;15.20;74.20
55083;DHT22;40978;52.850;6.506;2022-09-03T04:47:31;15.20;74.30
55083;DHT22;40978;52.850;6.506;2022-09-03T04:49:57;15.10;74.50
55083;DHT22;40978;52.850;6.506;2022-09-03T04:52:23;15.10;74.80
55083;DHT22;40978;52.850;6.506;2022-09-03T04:54:49;15.00;75.00
55083;DHT22;40978;52.850;6.506;2022-09-03T04:57:15;15.00;75.20
55083;DHT22;40978;52.850;6.506;2022-09-03T04:59:41;14.90;75.50
55083;DHT22;40978;52.850;6.506;2022-09-03T05:02:07;14.90;75.80
55083;DHT22;40978;52.850;6.506;2022-09-03T05:04:34;14.90;76.00
55083;DHT22;40978;52.850;6.506;2022-09-03T05:07:00;14.80;76.40
55083;DHT22;40978;52.850;6.506;2022-09-03T05:09:25;14.80;76.80
55083;DHT22;40978;52.850;6.506;2022-09-03T05:11:51;14.80;77.20
55083;DHT22;40978;52.850;6.506;2022-09-03T05:14:17;14.80;77.40
55083;DHT22;40978;52.850;6.506;2022-09-03T05:16:42;14.80;77.80
55083;DHT22;40978;52.850;6.506;2022-09-03T05:19:08;14.80;78.00
55083;DHT22;40978;52.850;6.506;2022-09-03T05:21:35;14.80;78.20
55083;DHT22;40978;52.850;6.506;2022-09-03T05:24:01;14.80;78.40
55083;DHT22;40978;52.850;6.506;2022-09-03T05:26:35;14.80;78.70
55083;DHT22;40978;52.850;6.506;2022-09-03T05:29:02;14.80;78.60
55083;DHT22;40978;52.850;6.506;2022-09-03T05:31:33;14.80;79.00
55083;DHT22;40978;52.850;6.506;2022-09-03T05:34:02;14.80;79.30
55083;DHT22;40978;52.850;6.506;2022-09-03T05:36:30;14.80;79.60
55083;DHT22;40978;52.850;6.506;2022-09-03T05:38:57;14.80;79.60
55083;DHT22;40978;52.850;6.506;2022-09-03T05:41:23;14.80;79.70
55083;DHT22;40978;52.850;6.506;2022-09-03T05:43:51;14.80;80.10
55083;DHT22;40978;52.850;6.506;2022-09-03T05:46:20;14.90;80.10
55083;DHT22;40978;52.850;6.506;2022-09-03T05:48:46;14.90;80.40
55083;DHT22;40978;52.850;6.506;2022-09-03T05:51:14;14.90;80.80
55083;DHT22;40978;52.850;6.506;2022-09-03T05:53:45;14.90;81.00
55083;DHT22;40978;52.850;6.506;2022-09-03T05:56:18;14.90;81.00
55083;DHT22;40978;52.850;6.506;2022-09-03T05:58:49;15.00;81.90
55083;DHT22;40978;52.850;6.506;2022-09-03T06:01:29;15.00;81.50
55083;DHT22;40978;52.850;6.506;2022-09-03T06:04:09;15.10;81.50
55083;DHT22;40978;52.850;6.506;2022-09-03T06:06:40;15.10;81.60
55083;DHT22;40978;52.850;6.506;2022-09-03T06:09:07;15.20;81.40
55083;DHT22;40978;52.850;6.506;2022-09-03T06:11:36;15.20;81.50
55083;DHT22;40978;52.850;6.506;2022-09-03T06:14:04;15.30;81.70
55083;DHT22;40978;52.850;6.506;2022-09-03T06:16:31;15.20;81.70
55083;DHT22;40978;52.850;6.506;2022-09-03T06:18:58;15.30;82.10
55083;DHT22;40978;52.850;6.506;2022-09-03T06:21:24;15.50;82.10
55083;DHT22;40978;52.850;6.506;2022-09-03T06:23:51;15.60;82.10
55083;DHT22;40978;52.850;6.506;2022-09-03T06:26:18;15.70;81.30
55083;DHT22;40978;52.850;6.506;2022-09-03T06:28:45;15.80;81.30
55083;DHT22;40978;52.850;6.506;2022-09-03T06:31:13;15.90;80.90
55083;DHT22;40978;52.850;6.506;2022-09-03T06:33:40;15.90;80.60
55083;DHT22;40978;52.850;6.506;2022-09-03T06:36:09;16.00;81.40
55083;DHT22;40978;52.850;6.506;2022-09-03T06:38:36;16.00;81.30
55083;DHT22;40978;52.850;6.506;2022-09-03T06:41:13;16.10;80.60
55083;DHT22;40978;52.850;6.506;2022-09-03T06:43:40;16.10;80.20
55083;DHT22;40978;52.850;6.506;2022-09-03T06:46:18;16.10;80.60
55083;DHT22;40978;52.850;6.506;2022-09-03T06:48:44;16.10;80.20
55083;DHT22;40978;52.850;6.506;2022-09-03T06:51:22;16.20;80.90
55083;DHT22;40978;52.850;6.506;2022-09-03T06:53:50;16.30;81.00
55083;DHT22;40978;52.850;6.506;2022-09-03T06:56:18;16.40;80.80
55083;DHT22;40978;52.850;6.506;2022-09-03T06:58:52;16.40;80.60
55083;DHT22;40978;52.850;6.506;2022-09-03T07:01:20;16.50;81.30
55083;DHT22;40978;52.850;6.506;2022-09-03T07:03:50;16.60;80.40
55083;DHT22;40978;52.850;6.506;2022-09-03T07:06:18;16.70;80.00
55083;DHT22;40978;52.850;6.506;2022-09-03T07:08:45;16.80;79.60
55083;DHT22;40978;52.850;6.506;2022-09-03T07:11:13;16.90;79.20
55083;DHT22;40978;52.850;6.506;2022-09-03T07:13:43;17.00;79.30
55083;DHT22;40978;52.850;6.506;2022-09-03T07:16:12;17.20;79.10
55083;DHT22;40978;52.850;6.506;2022-09-03T07:18:38;17.30;79.10
55083;DHT22;40978;52.850;6.506;2022-09-03T07:21:09;17.40;78.10
55083;DHT22;40978;52.850;6.506;2022-09-03T07:23:36;17.60;77.30
55083;DHT22;40978;52.850;6.506;2022-09-03T07:26:11;17.60;77.50
55083;DHT22;40978;52.850;6.506;2022-09-03T07:28:38;17.80;76.40
55083;DHT22;40978;52.850;6.506;2022-09-03T07:31:06;17.90;75.50
55083;DHT22;40978;52.850;6.506;2022-09-03T07:33:32;18.00;75.40
55083;DHT22;40978;52.850;6.506;2022-09-03T07:36:10;18.10;75.40
55083;DHT22;40978;52.850;6.506;2022-09-03T07:38:39;18.30;74.50
55083;DHT22;40978;52.850;6.506;2022-09-03T07:41:07;18.40;73.40
55083;DHT22;40978;52.850;6.506;2022-09-03T07:43:36;18.50;72.80
55083;DHT22;40978;52.850;6.506;2022-09-03T07:46:05;18.60;72.70
55083;DHT22;40978;52.850;6.506;2022-09-03T07:48:31;18.60;72.30
55083;DHT22;40978;52.850;6.506;2022-09-03T07:50:58;18.80;71.90
55083;DHT22;40978;52.850;6.506;2022-09-03T07:53:26;18.90;72.50
55083;DHT22;40978;52.850;6.506;2022-09-03T07:55:53;19.10;71.90
55083;DHT22;40978;52.850;6.506;2022-09-03T07:58:19;19.40;71.40
55083;DHT22;40978;52.850;6.506;2022-09-03T08:00:49;19.50;69.70
55083;DHT22;40978;52.850;6.506;2022-09-03T08:03:14;19.70;69.40
55083;DHT22;40978;52.850;6.506;2022-09-03T08:05:41;20.10;70.00
55083;DHT22;40978;52.850;6.506;2022-09-03T08:08:06;20.90;68.30
55083;DHT22;40978;52.850;6.506;2022-09-03T08:11:09;21.60;65.80
55083;DHT22;40978;52.850;6.506;2022-09-03T08:13:43;22.40;63.20
55083;DHT22;40978;52.850;6.506;2022-09-03T08:16:14;23.00;61.50
55083;DHT22;40978;52.850;6.506;2022-09-03T08:18:40;23.50;61.20
55083;DHT22;40978;52.850;6.506;2022-09-03T08:21:08;24.20;59.70
55083;DHT22;40978;52.850;6.506;2022-09-03T08:23:39;24.40;57.30
55083;DHT22;40978;52.850;6.506;2022-09-03T08:26:05;24.60;55.30
55083;DHT22;40978;52.850;6.506;2022-09-03T08:28:32;24.70;55.50
55083;DHT22;40978;52.850;6.506;2022-09-03T08:31:07;24.90;54.60
55083;DHT22;40978;52.850;6.506;2022-09-03T08:33:37;24.90;53.30
55083;DHT22;40978;52.850;6.506;2022-09-03T08:36:08;24.90;54.00
55083;DHT22;40978;52.850;6.506;2022-09-03T08:38:37;25.10;54.00
55083;DHT22;40978;52.850;6.506;2022-09-03T08:46:24;25.90;52.20
55083;DHT22;40978;52.850;6.506;2022-09-03T08:48:52;26.00;51.90
55083;DHT22;40978;52.850;6.506;2022-09-03T08:51:21;26.10;51.60
55083;DHT22;40978;52.850;6.506;2022-09-03T08:53:50;26.20;51.20
55083;DHT22;40978;52.850;6.506;2022-09-03T08:56:30;26.20;50.80
55083;DHT22;40978;52.850;6.506;2022-09-03T08:58:59;26.30;49.90
55083;DHT22;40978;52.850;6.506;2022-09-03T09:01:39;26.20;49.90
55083;DHT22;40978;52.850;6.506;2022-09-03T09:07:00;26.10;50.00
55083;DHT22;40978;52.850;6.506;2022-09-03T09:12:19;26.60;50.30
55083;DHT22;40978;52.850;6.506;2022-09-03T09:15:06;26.90;48.40
55083;DHT22;40978;52.850;6.506;2022-09-03T09:18:04;26.90;48.60
55083;DHT22;40978;52.850;6.506;2022-09-03T09:23:23;27.10;48.50
55083;DHT22;40978;52.850;6.506;2022-09-03T09:25:53;27.20;49.30
55083;DHT22;40978;52.850;6.506;2022-09-03T09:28:22;27.50;48.30
55083;DHT22;40978;52.850;6.506;2022-09-03T09:30:50;27.60;48.20
55083;DHT22;40978;52.850;6.506;2022-09-03T09:33:17;27.70;47.90
55083;DHT22;40978;52.850;6.506;2022-09-03T09:35:44;27.60;46.90
55083;DHT22;40978;52.850;6.506;2022-09-03T09:38:11;27.60;47.50
55083;DHT22;40978;52.850;6.506;2022-09-03T09:40:39;27.60;47.50
55083;DHT22;40978;52.850;6.506;2022-09-03T09:43:13;27.70;46.90
55083;DHT22;40978;52.850;6.506;2022-09-03T09:45:51;27.80;47.20
55083;DHT22;40978;52.850;6.506;2022-09-03T09:53:43;27.70;46.00
55083;DHT22;40978;52.850;6.506;2022-09-03T09:56:24;27.60;46.40
55083;DHT22;40978;52.850;6.506;2022-09-03T09:59:00;27.60;46.40
55083;DHT22;40978;52.850;6.506;2022-09-03T10:01:26;27.70;47.00
55083;DHT22;40978;52.850;6.506;2022-09-03T10:04:09;27.80;46.40
55083;DHT22;40978;52.850;6.506;2022-09-03T10:06:35;28.00;46.00
55083;DHT22;40978;52.850;6.506;2022-09-03T10:09:32;28.00;45.60
55083;DHT22;40978;52.850;6.506;2022-09-03T10:12:16;28.20;44.70
55083;DHT22;40978;52.850;6.506;2022-09-03T10:14:59;28.20;44.30
55083;DHT22;40978;52.850;6.506;2022-09-03T10:20:41;28.20;45.20
55083;DHT22;40978;52.850;6.506;2022-09-03T10:23:26;28.20;44.10
55083;DHT22;40978;52.850;6.506;2022-09-03T10:28:24;28.20;44.20
55083;DHT22;40978;52.850;6.506;2022-09-03T10:33:47;28.20;44.20
55083;DHT22;40978;52.850;6.506;2022-09-03T10:36:23;28.10;44.60
55083;DHT22;40978;52.850;6.506;2022-09-03T10:39:38;28.10;44.20
55083;DHT22;40978;52.850;6.506;2022-09-03T10:45:01;28.40;44.30
55083;DHT22;40978;52.850;6.506;2022-09-03T10:47:36;28.70;42.70
55083;DHT22;40978;52.850;6.506;2022-09-03T10:50:19;28.50;42.60
55083;DHT22;40978;52.850;6.506;2022-09-03T11:00:55;28.40;41.40
55083;DHT22;40978;52.850;6.506;2022-09-03T11:06:18;28.30;41.50
55083;DHT22;40978;52.850;6.506;2022-09-03T11:12:03;28.10;41.30
55083;DHT22;40978;52.850;6.506;2022-09-03T11:14:34;28.00;43.40
55083;DHT22;40978;52.850;6.506;2022-09-03T11:17:15;28.00;42.40
55083;DHT22;40978;52.850;6.506;2022-09-03T11:19:49;28.20;41.70
55083;DHT22;40978;52.850;6.506;2022-09-03T11:22:16;28.40;41.00
55083;DHT22;40978;52.850;6.506;2022-09-03T11:24:45;28.50;41.80
55083;DHT22;40978;52.850;6.506;2022-09-03T11:27:19;28.80;41.20
55083;DHT22;40978;52.850;6.506;2022-09-03T11:29:55;28.70;40.40
55083;DHT22;40978;52.850;6.506;2022-09-03T11:35:24;28.80;40.90
55083;DHT22;40978;52.850;6.506;2022-09-03T11:38:01;28.80;40.80
55083;DHT22;40978;52.850;6.506;2022-09-03T11:40:36;29.00;40.50
55083;DHT22;40978;52.850;6.506;2022-09-03T11:43:25;29.10;40.90
55083;DHT22;40978;52.850;6.506;2022-09-03T11:48:40;29.90;37.70
55083;DHT22;40978;52.850;6.506;2022-09-03T11:51:29;29.60;38.80
55083;DHT22;40978;52.850;6.506;2022-09-03T11:53:58;29.70;39.40
55083;DHT22;40978;52.850;6.506;2022-09-03T11:56:24;29.90;39.30
55083;DHT22;40978;52.850;6.506;2022-09-03T11:59:00;29.90;38.60
55083;DHT22;40978;52.850;6.506;2022-09-03T12:01:27;29.90;38.30
55083;DHT22;40978;52.850;6.506;2022-09-03T12:03:58;30.20;37.90
55083;DHT22;40978;52.850;6.506;2022-09-03T12:06:55;30.30;37.70
55083;DHT22;40978;52.850;6.506;2022-09-03T12:18:11;31.00;36.60
55083;DHT22;40978;52.850;6.506;2022-09-03T12:21:00;31.00;36.50
55083;DHT22;40978;52.850;6.506;2022-09-03T12:26:06;30.60;36.70
55083;DHT22;40978;52.850;6.506;2022-09-03T12:28:37;30.80;36.50
55083;DHT22;40978;52.850;6.506;2022-09-03T12:31:15;31.00;36.20
55083;DHT22;40978;52.850;6.506;2022-09-03T12:34:15;31.10;36.30
55083;DHT22;40978;52.850;6.506;2022-09-03T12:36:45;31.30;37.20
55083;DHT22;40978;52.850;6.506;2022-09-03T12:39:25;31.40;36.30
55083;DHT22;40978;52.850;6.506;2022-09-03T12:42:07;31.30;35.80
55083;DHT22;40978;52.850;6.506;2022-09-03T12:47:01;31.30;35.90
55083;DHT22;40978;52.850;6.506;2022-09-03T12:49:40;31.20;35.70
55083;DHT22;40978;52.850;6.506;2022-09-03T12:52:31;31.00;36.00
55083;DHT22;40978;52.850;6.506;2022-09-03T12:55:03;30.90;36.60
55083;DHT22;40978;52.850;6.506;2022-09-03T12:57:41;31.00;36.10
55083;DHT22;40978;52.850;6.506;2022-09-03T13:00:12;30.90;36.00
55083;DHT22;40978;52.850;6.506;2022-09-03T13:05:13;30.90;35.60
55083;DHT22;40978;52.850;6.506;2022-09-03T13:07:42;30.80;35.70
55083;DHT22;40978;52.850;6.506;2022-09-03T13:10:30;30.80;36.30
55083;DHT22;40978;52.850;6.506;2022-09-03T13:12:59;30.60;36.00
55083;DHT22;40978;52.850;6.506;2022-09-03T13:15:25;30.50;36.50
55083;DHT22;40978;52.850;6.506;2022-09-03T13:18:05;30.50;36.70
55083;DHT22;40978;52.850;6.506;2022-09-03T13:20:40;30.60;36.40
55083;DHT22;40978;52.850;6.506;2022-09-03T13:31:51;29.60;37.20
55083;DHT22;40978;52.850;6.506;2022-09-03T13:34:41;29.30;38.10
55083;DHT22;40978;52.850;6.506;2022-09-03T13:37:25;29.10;37.30
55083;DHT22;40978;52.850;6.506;2022-09-03T13:40:05;28.90;38.20
55083;DHT22;40978;52.850;6.506;2022-09-03T13:42:50;28.60;37.50
55083;DHT22;40978;52.850;6.506;2022-09-03T13:45:34;28.10;38.20
55083;DHT22;40978;52.850;6.506;2022-09-03T13:53:45;27.60;40.10
55083;DHT22;40978;52.850;6.506;2022-09-03T13:59:32;27.60;40.00
55083;DHT22;40978;52.850;6.506;2022-09-03T14:02:22;27.60;40.70
55083;DHT22;40978;52.850;6.506;2022-09-03T14:05:06;27.50;40.40
55083;DHT22;40978;52.850;6.506;2022-09-03T14:07:57;27.50;41.00
55083;DHT22;40978;52.850;6.506;2022-09-03T14:10:50;27.30;40.80
55083;DHT22;40978;52.850;6.506;2022-09-03T14:16:52;27.20;41.20
55083;DHT22;40978;52.850;6.506;2022-09-03T14:22:04;27.00;41.00
55083;DHT22;40978;52.850;6.506;2022-09-03T14:24:52;26.90;41.20
55083;DHT22;40978;52.850;6.506;2022-09-03T14:27:28;26.80;41.10
55083;DHT22;40978;52.850;6.506;2022-09-03T14:30:03;26.70;41.60
55083;DHT22;40978;52.850;6.506;2022-09-03T14:32:55;26.60;41.50
55083;DHT22;40978;52.850;6.506;2022-09-03T14:36:01;26.40;42.00
55083;DHT22;40978;52.850;6.506;2022-09-03T14:41:59;26.20;43.10
55083;DHT22;40978;52.850;6.506;2022-09-03T15:01:27;25.60;43.70
55083;DHT22;40978;52.850;6.506;2022-09-03T15:04:05;25.70;43.90
55083;DHT22;40978;52.850;6.506;2022-09-03T15:06:44;25.70;43.70
55083;DHT22;40978;52.850;6.506;2022-09-03T15:09:31;25.70;43.40
55083;DHT22;40978;52.850;6.506;2022-09-03T15:14:55;25.60;44.00
55083;DHT22;40978;52.850;6.506;2022-09-03T15:20:25;25.50;44.20
55083;DHT22;40978;52.850;6.506;2022-09-03T15:31:32;25.30;44.40
55083;DHT22;40978;52.850;6.506;2022-09-03T15:36:50;25.20;44.90
55083;DHT22;40978;52.850;6.506;2022-09-03T15:39:33;25.10;45.10
55083;DHT22;40978;52.850;6.506;2022-09-03T15:42:05;24.90;45.00
55083;DHT22;40978;52.850;6.506;2022-09-03T15:52:55;24.80;45.40
55083;DHT22;40978;52.850;6.506;2022-09-03T15:58:06;24.80;45.60
55083;DHT22;40978;52.850;6.506;2022-09-03T16:00:57;24.80;45.60
55083;DHT22;40978;52.850;6.506;2022-09-03T16:06:19;24.70;45.60
55083;DHT22;40978;52.850;6.506;2022-09-03T16:08:54;24.70;46.30
55083;DHT22;40978;52.850;6.506;2022-09-03T16:14:09;24.60;46.70
55083;DHT22;40978;52.850;6.506;2022-09-03T16:21:59;24.50;47.00
55083;DHT22;40978;52.850;6.506;2022-09-03T16:29:38;24.50;47.10
55083;DHT22;40978;52.850;6.506;2022-09-03T16:35:19;24.60;48.10
55083;DHT22;40978;52.850;6.506;2022-09-03T16:40:46;24.70;47.70
55083;DHT22;40978;52.850;6.506;2022-09-03T16:52:09;24.60;47.60
55083;DHT22;40978;52.850;6.506;2022-09-03T17:00:45;24.40;48.30
55083;DHT22;40978;52.850;6.506;2022-09-03T17:03:41;24.40;48.70
55083;DHT22;40978;52.850;6.506;2022-09-03T17:21:47;23.80;50.00
55083;DHT22;40978;52.850;6.506;2022-09-03T17:27:49;23.70;50.60
55083;DHT22;40978;52.850;6.506;2022-09-03T17:49:47;23.00;52.90
55083;DHT22;40978;52.850;6.506;2022-09-03T17:54:47;22.80;53.40
55083;DHT22;40978;52.850;6.506;2022-09-03T18:03:00;22.60;53.90
55083;DHT22;40978;52.850;6.506;2022-09-03T18:05:40;22.50;53.90
55083;DHT22;40978;52.850;6.506;2022-09-03T18:11:18;22.30;54.20
55083;DHT22;40978;52.850;6.506;2022-09-03T18:19:42;22.00;54.90
55083;DHT22;40978;52.850;6.506;2022-09-03T18:22:51;21.90;55.10
55083;DHT22;40978;52.850;6.506;2022-09-03T18:25:39;21.90;55.40
55083;DHT22;40978;52.850;6.506;2022-09-03T18:28:47;21.70;55.40
55083;DHT22;40978;52.850;6.506;2022-09-03T18:31:33;21.60;55.60
55083;DHT22;40978;52.850;6.506;2022-09-03T18:34:20;21.60;55.70
55083;DHT22;40978;52.850;6.506;2022-09-03T18:37:07;21.50;56.00
55083;DHT22;40978;52.850;6.506;2022-09-03T18:39:51;21.40;56.30
55083;DHT22;40978;52.850;6.506;2022-09-03T18:43:01;21.30;56.50
55083;DHT22;40978;52.850;6.506;2022-09-03T18:49:09;21.10;57.00
55083;DHT22;40978;52.850;6.506;2022-09-03T18:54:57;21.00;57.20
55083;DHT22;40978;52.850;6.506;2022-09-03T19:10:32;20.70;58.10
55083;DHT22;40978;52.850;6.506;2022-09-03T19:13:32;20.70;58.30
55083;DHT22;40978;52.850;6.506;2022-09-03T19:16:42;20.60;58.40
55083;DHT22;40978;52.850;6.506;2022-09-03T19:22:39;20.60;58.70
55083;DHT22;40978;52.850;6.506;2022-09-03T19:25:25;20.50;58.70
55083;DHT22;40978;52.850;6.506;2022-09-03T19:28:23;20.40;58.80
55083;DHT22;40978;52.850;6.506;2022-09-03T19:40:33;20.30;59.20
55083;DHT22;40978;52.850;6.506;2022-09-03T19:47:00;20.20;59.60
55083;DHT22;40978;52.850;6.506;2022-09-03T19:53:02;20.00;59.60
55083;DHT22;40978;52.850;6.506;2022-09-03T19:55:53;19.90;60.00
55083;DHT22;40978;52.850;6.506;2022-09-03T19:58:55;19.90;60.20
55083;DHT22;40978;52.850;6.506;2022-09-03T20:01:39;19.80;60.50
55083;DHT22;40978;52.850;6.506;2022-09-03T20:04:37;19.80;60.40
55083;DHT22;40978;52.850;6.506;2022-09-03T20:07:23;19.70;60.60
55083;DHT22;40978;52.850;6.506;2022-09-03T20:10:11;19.70;61.00
55083;DHT22;40978;52.850;6.506;2022-09-03T20:15:37;19.40;61.30
55083;DHT22;40978;52.850;6.506;2022-09-03T20:18:20;19.40;61.50
55083;DHT22;40978;52.850;6.506;2022-09-03T20:21:21;19.40;61.70
55083;DHT22;40978;52.850;6.506;2022-09-03T20:29:46;19.20;62.10
55083;DHT22;40978;52.850;6.506;2022-09-03T20:39:47;19.00;62.70
55083;DHT22;40978;52.850;6.506;2022-09-03T20:50:17;18.80;63.50
55083;DHT22;40978;52.850;6.506;2022-09-03T20:52:48;18.70;63.80
55083;DHT22;40978;52.850;6.506;2022-09-03T20:55:20;18.60;63.90
55083;DHT22;40978;52.850;6.506;2022-09-03T20:58:12;18.60;63.70
55083;DHT22;40978;52.850;6.506;2022-09-03T21:01:03;18.50;63.80
55083;DHT22;40978;52.850;6.506;2022-09-03T21:03:43;18.60;64.10
55083;DHT22;40978;52.850;6.506;2022-09-03T21:11:58;18.40;64.00
55083;DHT22;40978;52.850;6.506;2022-09-03T21:19:34;18.30;64.00
55083;DHT22;40978;52.850;6.506;2022-09-03T21:22:40;18.40;64.00
55083;DHT22;40978;52.850;6.506;2022-09-03T21:25:13;18.30;64.20
55083;DHT22;40978;52.850;6.506;2022-09-03T21:27:47;18.20;64.50
55083;DHT22;40978;52.850;6.506;2022-09-03T21:30:17;18.20;64.30
55083;DHT22;40978;52.850;6.506;2022-09-03T21:32:51;18.20;64.40
55083;DHT22;40978;52.850;6.506;2022-09-03T21:35:35;18.10;64.30
55083;DHT22;40978;52.850;6.506;2022-09-03T21:38:20;18.10;64.20
55083;DHT22;40978;52.850;6.506;2022-09-03T21:41:10;18.20;64.30
55083;DHT22;40978;52.850;6.506;2022-09-03T21:46:16;18.10;64.20
55083;DHT22;40978;52.850;6.506;2022-09-03T21:51:29;18.00;64.00
55083;DHT22;40978;52.850;6.506;2022-09-03T21:54:34;18.00;64.10
55083;DHT22;40978;52.850;6.506;2022-09-03T22:04:35;17.90;63.90
55083;DHT22;40978;52.850;6.506;2022-09-03T22:07:22;17.90;63.70
55083;DHT22;40978;52.850;6.506;2022-09-03T22:12:48;17.90;63.70
55083;DHT22;40978;52.850;6.506;2022-09-03T22:15:17;17.90;63.50
55083;DHT22;40978;52.850;6.506;2022-09-03T22:17:50;17.90;63.40
55083;DHT22;40978;52.850;6.506;2022-09-03T22:20:21;17.90;63.30
55083;DHT22;40978;52.850;6.506;2022-09-03T22:22:51;17.90;63.30
55083;DHT22;40978;52.850;6.506;2022-09-03T22:31:01;17.80;63.20
55083;DHT22;40978;52.850;6.506;2022-09-03T22:33:46;17.80;63.20
55083;DHT22;40978;52.850;6.506;2022-09-03T22:36:26;17.80;63.20